Time;durP1;ratioP1;P1;durP2;ratioP2;P2;SDS_P1;SDS_P2;PMS_P1;PMS_P2;Temp;Humidity;BMP_temperature;BMP_pressure;BME280_temperature;BME280_humidity;BME280_pressure;Samples;Min_cycle;Max_cycle;Signal;HPM_P1;HPM_P2
2022/11/25 00:00:45;;;;;;;0.90;0.40;;;16.10;71.00;;;;;;4983502;28;20078;-16
2022/11/25 00:03:10;;;;;;;0.40;0.30;;;16.10;71.00;;;;;;4982895;28;20518;-16
2022/11/25 00:05:36;;;;;;;0.57;0.50;;;16.10;71.10;;;;;;4987981;28;20049;-17
2022/11/25 00:08:01;;;;;;;0.50;0.30;;;16.20;71.10;;;;;;4987197;28;20129;-16
2022/11/25 00:10:27;;;;;;;0.43;0.43;;;16.10;71.00;;;;;;4985352;28;20806;-16
2022/11/25 00:12:52;;;;;;;0.60;0.40;;;16.10;70.90;;;;;;4987543;28;20073;-16
2022/11/25 00:15:18;;;;;;;0.80;0.60;;;16.10;70.90;;;;;;4984232;28;20054;-16
2022/11/25 00:17:44;;;;;;;0.60;0.45;;;16.10;70.90;;;;;;4986456;28;20612;-16
2022/11/25 00:20:09;;;;;;;0.25;0.25;;;16.10;71.00;;;;;;4987060;28;20070;-16
2022/11/25 00:22:35;;;;;;;0.43;0.40;;;16.10;70.80;;;;;;4987293;28;20480;-17
2022/11/25 00:25:00;;;;;;;0.73;0.63;;;16.10;71.00;;;;;;4985104;28;20089;-21
2022/11/25 00:27:26;;;;;;;0.40;0.32;;;16.10;71.00;;;;;;4988298;28;20046;-16
2022/11/25 00:29:52;;;;;;;0.77;0.50;;;16.10;70.90;;;;;;4986683;28;20038;-16
2022/11/25 00:32:17;;;;;;;0.77;0.50;;;16.10;70.80;;;;;;4987864;28;20050;-16
2022/11/25 00:34:43;;;;;;;0.43;0.40;;;16.10;71.00;;;;;;4985279;28;20062;-16
2022/11/25 00:37:08;;;;;;;0.40;0.40;;;16.10;70.90;;;;;;4987857;28;20038;-16
2022/11/25 00:39:34;;;;;;;0.40;0.32;;;16.10;70.80;;;;;;4986184;28;20570;-16
2022/11/25 00:44:45;;;;;;;0.63;0.43;;;16.10;71.00;;;;;;4986029;28;20046;-16
2022/11/25 00:47:15;;;;;;;0.40;0.40;;;16.10;70.90;;;;;;4984381;28;20050;-18
2022/11/25 00:49:45;;;;;;;1.42;0.70;;;16.10;71.00;;;;;;4982424;28;20043;-18
2022/11/25 00:52:18;;;;;;;0.52;0.43;;;16.10;71.10;;;;;;4986774;28;20066;-23
2022/11/25 00:54:45;;;;;;;0.45;0.40;;;16.10;71.10;;;;;;4982605;28;20057;-18
2022/11/25 00:57:11;;;;;;;0.40;0.40;;;16.00;70.90;;;;;;4984394;28;20042;-19
2022/11/25 00:59:36;;;;;;;0.60;0.60;;;16.20;70.80;;;;;;4986531;28;20038;-18
2022/11/25 01:02:02;;;;;;;0.55;0.40;;;16.10;70.70;;;;;;4982612;28;20101;-18
2022/11/25 01:04:27;;;;;;;0.68;0.52;;;16.10;71.50;;;;;;4982711;28;20043;-18
2022/11/25 01:06:55;;;;;;;0.85;0.50;;;16.10;70.80;;;;;;4986004;28;20116;-18
2022/11/25 01:09:21;;;;;;;1.00;0.55;;;16.10;70.80;;;;;;4986727;28;20066;-18
2022/11/25 01:11:49;;;;;;;2.20;0.60;;;16.10;70.70;;;;;;4986778;28;20088;-19
2022/11/25 01:14:15;;;;;;;0.50;0.50;;;16.10;70.70;;;;;;4983199;28;20495;-19
2022/11/25 01:16:40;;;;;;;0.68;0.40;;;16.00;70.90;;;;;;4986558;28;20097;-18
2022/11/25 01:19:06;;;;;;;0.60;0.50;;;16.00;70.90;;;;;;4984955;28;20409;-18
2022/11/25 01:21:32;;;;;;;0.40;0.40;;;16.10;71.00;;;;;;4985217;28;20403;-18
2022/11/25 01:23:59;;;;;;;0.60;0.50;;;16.00;70.90;;;;;;4986542;28;20073;-18
2022/11/25 01:26:25;;;;;;;0.60;0.55;;;16.10;70.60;;;;;;4985379;28;20042;-19
2022/11/25 01:28:55;;;;;;;0.40;0.40;;;16.10;70.70;;;;;;4987027;28;20397;-19
2022/11/25 01:31:21;;;;;;;0.80;0.50;;;16.10;70.80;;;;;;4986254;28;20049;-19
2022/11/25 01:33:50;;;;;;;0.45;0.30;;;16.00;70.80;;;;;;4986240;28;20049;-21
2022/11/25 01:36:17;;;;;;;0.80;0.38;;;16.00;71.00;;;;;;4989401;28;20046;-18
2022/11/25 01:38:43;;;;;;;0.50;0.40;;;16.00;70.90;;;;;;4989112;28;20050;-19
2022/11/25 01:41:12;;;;;;;0.55;0.55;;;16.10;70.70;;;;;;4990153;28;20393;-18
2022/11/25 01:43:38;;;;;;;0.60;0.45;;;16.00;70.80;;;;;;4987097;28;20042;-18
2022/11/25 01:46:20;;;;;;;0.50;0.50;;;16.10;70.90;;;;;;4989620;28;20052;-19
2022/11/25 01:49:06;;;;;;;0.57;0.43;;;16.10;70.60;;;;;;5001019;28;20046;-18
2022/11/25 01:51:34;;;;;;;0.55;0.55;;;16.10;70.80;;;;;;4983291;28;20053;-18
2022/11/25 01:54:01;;;;;;;0.40;0.40;;;16.00;70.90;;;;;;4983536;28;20035;-22
2022/11/25 01:56:27;;;;;;;0.82;0.60;;;16.10;70.70;;;;;;4986529;28;20050;-19
2022/11/25 01:58:52;;;;;;;0.50;0.50;;;16.00;70.80;;;;;;4988266;28;20051;-19
2022/11/25 02:01:20;;;;;;;1.40;0.63;;;16.10;70.90;;;;;;4988426;28;20041;-22
2022/11/25 02:03:47;;;;;;;1.35;0.68;;;16.00;70.80;;;;;;4985113;28;20530;-18
2022/11/25 02:06:21;;;;;;;0.50;0.32;;;16.10;70.80;;;;;;4985827;28;20048;-18
2022/11/25 02:08:48;;;;;;;0.65;0.50;;;16.00;70.80;;;;;;4983811;28;20058;-19
2022/11/25 02:11:14;;;;;;;0.60;0.60;;;16.00;70.80;;;;;;5014973;28;20054;-18
2022/11/25 02:13:40;;;;;;;0.85;0.68;;;16.00;70.80;;;;;;4986542;28;20053;-18
2022/11/25 02:16:05;;;;;;;0.50;0.40;;;16.00;70.60;;;;;;4989946;28;20578;-18
2022/11/25 02:18:31;;;;;;;0.57;0.57;;;16.10;70.60;;;;;;4983279;28;20060;-18
2022/11/25 02:20:56;;;;;;;0.50;0.50;;;16.10;70.70;;;;;;4984851;28;20061;-19
2022/11/25 02:23:29;;;;;;;0.57;0.50;;;16.00;70.70;;;;;;4982025;28;20120;-18
2022/11/25 02:25:55;;;;;;;0.73;0.40;;;16.10;70.70;;;;;;4989835;28;20046;-18
2022/11/25 02:28:25;;;;;;;0.60;0.50;;;16.10;70.70;;;;;;4989271;28;20030;-19
2022/11/25 02:30:51;;;;;;;0.82;0.30;;;16.00;70.80;;;;;;4988233;28;20050;-18
2022/11/25 02:33:16;;;;;;;0.30;0.30;;;16.00;70.90;;;;;;4987596;28;20416;-18
2022/11/25 02:35:45;;;;;;;0.70;0.60;;;15.90;71.00;;;;;;4985213;28;20156;-18
2022/11/25 02:38:15;;;;;;;0.52;0.40;;;16.10;70.80;;;;;;4987098;28;20062;-19
2022/11/25 02:41:02;;;;;;;0.43;0.43;;;16.00;70.60;;;;;;4969950;28;20138;-18
2022/11/25 02:43:29;;;;;;;0.90;0.60;;;16.00;70.60;;;;;;4985630;28;20503;-18
2022/11/25 02:46:03;;;;;;;2.00;0.57;;;16.00;70.80;;;;;;4989977;28;20054;-18
2022/11/25 02:48:30;;;;;;;0.50;0.50;;;16.00;70.70;;;;;;4981029;28;20042;-19
2022/11/25 02:50:56;;;;;;;0.43;0.40;;;16.00;70.70;;;;;;4986778;28;20071;-18
2022/11/25 02:53:21;;;;;;;0.70;0.43;;;16.00;70.90;;;;;;4985256;28;20519;-19
2022/11/25 02:55:47;;;;;;;0.40;0.40;;;15.90;70.90;;;;;;4990391;28;20042;-18
2022/11/25 02:58:13;;;;;;;0.50;0.50;;;15.90;70.90;;;;;;4988358;28;20046;-18
2022/11/25 03:00:39;;;;;;;0.40;0.32;;;16.00;70.80;;;;;;4987244;28;20043;-18
2022/11/25 03:03:04;;;;;;;0.47;0.30;;;16.10;70.60;;;;;;4987389;28;20541;-27
2022/11/25 03:05:30;;;;;;;1.15;0.28;;;16.00;70.50;;;;;;4987997;28;20047;-19
2022/11/25 03:07:55;;;;;;;0.40;0.40;;;16.00;70.80;;;;;;4988376;28;20411;-18
2022/11/25 03:10:21;;;;;;;0.60;0.35;;;15.90;70.80;;;;;;4986730;28;20049;-19
2022/11/25 03:12:47;;;;;;;0.50;0.50;;;16.00;71.40;;;;;;4984571;28;20086;-20
2022/11/25 03:15:13;;;;;;;0.60;0.40;;;16.00;70.70;;;;;;4982005;28;20085;-19
2022/11/25 03:17:39;;;;;;;0.43;0.40;;;16.00;70.70;;;;;;4985785;28;20515;-18
2022/11/25 03:20:05;;;;;;;0.57;0.55;;;16.00;70.70;;;;;;4985790;28;20466;-19
2022/11/25 03:22:31;;;;;;;0.57;0.38;;;16.00;70.80;;;;;;4986288;28;20050;-19
2022/11/25 03:24:56;;;;;;;0.55;0.30;;;15.90;70.70;;;;;;4986513;28;20054;-23
2022/11/25 03:27:22;;;;;;;0.40;0.40;;;16.00;70.80;;;;;;4985002;28;20057;-19
2022/11/25 03:29:48;;;;;;;0.85;0.47;;;15.90;70.70;;;;;;4988673;28;20034;-19
2022/11/25 03:32:13;;;;;;;0.68;0.40;;;16.00;70.70;;;;;;4986199;28;20146;-17
2022/11/25 03:34:39;;;;;;;0.65;0.40;;;16.00;70.50;;;;;;4986372;28;20038;-18
2022/11/25 03:37:05;;;;;;;0.98;0.50;;;15.90;70.70;;;;;;4987923;28;20526;-18
2022/11/25 03:39:30;;;;;;;0.47;0.43;;;15.90;70.80;;;;;;4986599;28;20034;-18
2022/11/25 03:41:56;;;;;;;0.47;0.43;;;16.00;70.70;;;;;;4988646;28;20042;-19
2022/11/25 03:44:22;;;;;;;0.63;0.50;;;16.10;70.30;;;;;;4986711;28;20447;-19
2022/11/25 03:46:47;;;;;;;0.40;0.40;;;16.00;70.40;;;;;;4987891;28;20038;-20
2022/11/25 03:49:13;;;;;;;0.55;0.50;;;16.00;70.60;;;;;;4988315;28;20145;-18
2022/11/25 03:51:38;;;;;;;0.45;0.40;;;15.90;70.70;;;;;;4988156;28;20041;-19
2022/11/25 03:54:04;;;;;;;1.10;0.60;;;16.00;70.70;;;;;;4985402;28;20049;-19
2022/11/25 03:56:29;;;;;;;0.40;0.30;;;15.90;70.70;;;;;;4984675;28;20038;-18
2022/11/25 03:58:55;;;;;;;0.30;0.30;;;15.90;70.80;;;;;;4985658;28;20042;-19
2022/11/25 04:01:21;;;;;;;0.45;0.40;;;15.90;70.70;;;;;;4987503;28;20035;-22
2022/11/25 04:03:46;;;;;;;0.35;0.32;;;15.90;70.70;;;;;;4986505;28;20153;-19
2022/11/25 04:06:12;;;;;;;0.30;0.30;;;15.90;70.60;;;;;;4988983;28;20450;-19
2022/11/25 04:08:37;;;;;;;0.73;0.30;;;15.90;70.70;;;;;;4985144;28;20049;-18
2022/11/25 04:11:03;;;;;;;0.60;0.60;;;15.90;70.70;;;;;;4986517;28;20563;-18
2022/11/25 04:13:28;;;;;;;0.60;0.55;;;15.90;70.70;;;;;;4986240;28;20385;-18
2022/11/25 04:15:54;;;;;;;0.70;0.60;;;15.90;70.70;;;;;;4988713;28;20038;-19
2022/11/25 04:18:19;;;;;;;0.38;0.32;;;16.00;70.70;;;;;;4982994;28;20043;-18
2022/11/25 04:20:45;;;;;;;0.65;0.40;;;15.90;70.70;;;;;;4986423;28;20035;-19
2022/11/25 04:23:11;;;;;;;0.50;0.40;;;15.90;70.70;;;;;;4985740;28;20125;-18
2022/11/25 04:25:37;;;;;;;0.57;0.47;;;15.90;70.70;;;;;;4986270;28;20407;-18
2022/11/25 04:28:03;;;;;;;0.52;0.50;;;15.90;70.70;;;;;;4985205;28;20050;-20
2022/11/25 04:30:28;;;;;;;0.50;0.38;;;15.90;70.80;;;;;;4986671;28;20049;-18
2022/11/25 04:32:54;;;;;;;0.32;0.30;;;15.80;70.90;;;;;;4985271;28;20076;-18
2022/11/25 04:35:19;;;;;;;0.40;0.40;;;15.90;70.70;;;;;;4982753;28;20057;-18
2022/11/25 04:37:45;;;;;;;0.45;0.30;;;16.00;70.60;;;;;;4983628;28;20161;-18
2022/11/25 04:40:11;;;;;;;0.63;0.20;;;15.90;70.70;;;;;;4988038;28;20538;-18
2022/11/25 04:42:38;;;;;;;0.47;0.35;;;15.80;70.70;;;;;;4986659;28;20050;-18
2022/11/25 04:45:11;;;;;;;0.50;0.50;;;15.80;71.00;;;;;;4987050;28;20491;-28
2022/11/25 04:47:37;;;;;;;0.90;0.50;;;15.90;70.60;;;;;;4979677;28;20388;-18
2022/11/25 04:50:04;;;;;;;1.30;0.40;;;16.00;70.50;;;;;;4987203;28;20045;-19
2022/11/25 04:52:30;;;;;;;0.20;0.20;;;16.00;70.30;;;;;;4986458;28;20121;-19
2022/11/25 04:54:55;;;;;;;0.30;0.30;;;16.00;70.20;;;;;;4986338;28;20277;-18
2022/11/25 04:57:21;;;;;;;0.60;0.60;;;16.00;71.20;;;;;;4987176;28;20512;-18
2022/11/25 04:59:47;;;;;;;0.40;0.35;;;15.90;70.50;;;;;;4986860;28;20058;-20
2022/11/25 05:02:16;;;;;;;0.57;0.55;;;15.90;70.80;;;;;;4987677;28;20039;-20
2022/11/25 05:04:43;;;;;;;0.68;0.68;;;15.90;70.90;;;;;;4986296;28;20491;-18
2022/11/25 05:07:09;;;;;;;1.20;0.40;;;15.90;70.80;;;;;;4987136;28;20038;-18
2022/11/25 05:09:34;;;;;;;0.43;0.38;;;15.90;70.60;;;;;;4985471;28;20168;-18
2022/11/25 05:12:00;;;;;;;0.32;0.32;;;16.00;70.20;;;;;;4991830;28;20045;-18
2022/11/25 05:14:26;;;;;;;0.40;0.30;;;16.00;70.20;;;;;;4990232;28;20124;-18
2022/11/25 05:16:51;;;;;;;0.70;0.50;;;15.90;70.40;;;;;;4991856;28;20050;-19
2022/11/25 05:19:17;;;;;;;0.50;0.40;;;15.90;70.40;;;;;;4991258;28;20042;-19
2022/11/25 05:21:42;;;;;;;0.30;0.30;;;16.00;70.50;;;;;;4990256;28;20046;-19
2022/11/25 05:24:08;;;;;;;0.55;0.30;;;15.90;70.50;;;;;;4990056;28;20057;-19
2022/11/25 05:26:34;;;;;;;1.20;0.30;;;15.90;70.60;;;;;;4990368;28;20085;-18
2022/11/25 05:28:59;;;;;;;0.30;0.30;;;15.80;70.80;;;;;;4991619;28;20035;-18
2022/11/25 05:31:25;;;;;;;0.50;0.40;;;15.90;70.80;;;;;;4990756;28;20492;-18
2022/11/25 05:33:50;;;;;;;1.00;0.40;;;15.90;70.80;;;;;;4990662;28;20050;-18
2022/11/25 05:36:16;;;;;;;1.35;0.20;;;15.80;70.80;;;;;;4990813;28;20518;-18
2022/11/25 05:38:42;;;;;;;0.20;0.20;;;15.90;70.80;;;;;;4988028;28;20511;-19
2022/11/25 05:41:09;;;;;;;0.77;0.47;;;15.90;70.80;;;;;;4989833;28;20128;-24
2022/11/25 05:43:35;;;;;;;0.30;0.30;;;15.80;70.90;;;;;;4984766;28;20396;-18
2022/11/25 05:46:05;;;;;;;0.50;0.50;;;15.90;71.00;;;;;;4991088;28;20054;-18
2022/11/25 05:48:30;;;;;;;0.70;0.50;;;15.90;70.70;;;;;;4989553;28;20042;-18
2022/11/25 05:50:59;;;;;;;0.30;0.30;;;15.80;70.90;;;;;;4991628;28;20579;-18
2022/11/25 05:53:25;;;;;;;0.40;0.20;;;15.80;71.10;;;;;;4986920;28;20093;-17
2022/11/25 05:56:09;;;;;;;0.40;0.30;;;15.80;72.00;;;;;;4989486;28;20050;-19
2022/11/25 05:58:34;;;;;;;0.68;0.57;;;15.90;71.20;;;;;;4988171;28;20070;-18
2022/11/25 06:01:01;;;;;;;0.95;0.52;;;15.90;71.20;;;;;;4988581;28;20042;-18
2022/11/25 06:03:27;;;;;;;0.68;0.40;;;15.90;71.00;;;;;;4984227;28;20046;-18
2022/11/25 06:05:57;;;;;;;0.70;0.50;;;15.80;71.20;;;;;;4991154;28;20050;-20
2022/11/25 06:08:22;;;;;;;0.30;0.20;;;15.80;71.20;;;;;;4989392;28;20038;-22
2022/11/25 06:10:48;;;;;;;0.45;0.45;;;15.90;71.30;;;;;;4987886;28;20415;-19
2022/11/25 06:13:13;;;;;;;1.02;0.93;;;15.90;71.20;;;;;;4640100;28;9999937;-18
2022/11/25 06:15:41;;;;;;;0.40;0.40;;;15.90;71.20;;;;;;4982360;28;20042;-19
2022/11/25 06:18:06;;;;;;;0.40;0.40;;;15.90;71.20;;;;;;4987538;28;20117;-18
2022/11/25 06:20:32;;;;;;;0.50;0.40;;;15.90;71.20;;;;;;4985496;28;20128;-19
2022/11/25 06:22:57;;;;;;;0.73;0.50;;;15.90;71.30;;;;;;4981666;28;20054;-18
2022/11/25 06:25:24;;;;;;;0.68;0.30;;;15.90;71.20;;;;;;4979500;28;20042;-19
2022/11/25 06:27:50;;;;;;;1.13;0.50;;;15.90;71.20;;;;;;4980248;28;20556;-19
2022/11/25 06:30:15;;;;;;;0.60;0.50;;;15.90;71.20;;;;;;4964684;28;20034;-19
2022/11/25 06:32:41;;;;;;;1.15;0.60;;;15.90;71.50;;;;;;4959404;28;20047;-19
2022/11/25 06:35:07;;;;;;;0.68;0.57;;;15.90;71.70;;;;;;4959813;28;20153;-18
2022/11/25 06:37:33;;;;;;;0.80;0.47;;;15.90;71.50;;;;;;4966550;28;20125;-19
2022/11/25 06:39:58;;;;;;;1.90;0.47;;;15.80;71.70;;;;;;4980164;28;20411;-18
2022/11/25 06:42:24;;;;;;;0.55;0.40;;;15.80;71.70;;;;;;4984109;28;20078;-18
2022/11/25 06:44:49;;;;;;;0.80;0.63;;;15.90;71.60;;;;;;4983419;28;20062;-18
2022/11/25 06:47:15;;;;;;;0.93;0.30;;;15.80;71.70;;;;;;4981364;28;20035;-16
2022/11/25 06:49:41;;;;;;;0.80;0.43;;;15.80;71.70;;;;;;4983907;28;20061;-16
2022/11/25 06:52:06;;;;;;;0.40;0.40;;;15.90;71.90;;;;;;4983884;28;20042;-17
2022/11/25 06:54:32;;;;;;;0.35;0.20;;;15.80;72.00;;;;;;4982466;28;20108;-16
2022/11/25 06:56:58;;;;;;;1.20;0.40;;;15.80;72.10;;;;;;4984651;28;20058;-16
2022/11/25 06:59:23;;;;;;;2.15;0.70;;;15.80;72.00;;;;;;4981462;28;20031;-15
2022/11/25 07:01:49;;;;;;;0.80;0.40;;;15.80;72.00;;;;;;4981480;28;20068;-21
2022/11/25 07:04:14;;;;;;;1.05;0.40;;;15.80;71.90;;;;;;4981497;28;20403;-23
2022/11/25 07:06:40;;;;;;;1.88;0.40;;;15.80;72.10;;;;;;4979956;28;20538;-16
2022/11/25 07:09:06;;;;;;;1.42;0.30;;;15.80;72.10;;;;;;4984194;28;20081;-16
2022/11/25 07:11:36;;;;;;;1.73;0.40;;;15.80;72.00;;;;;;4980819;28;20182;-16
2022/11/25 07:14:03;;;;;;;0.75;0.55;;;15.90;71.60;;;;;;4983230;28;20205;-16
2022/11/25 07:16:30;;;;;;;0.50;0.40;;;15.80;71.70;;;;;;4977470;28;20201;-16
2022/11/25 07:18:58;;;;;;;1.55;0.40;;;15.90;71.70;;;;;;4987530;28;20125;-17
2022/11/25 07:21:23;;;;;;;1.13;0.50;;;15.90;71.60;;;;;;4980305;28;20035;-16
2022/11/25 07:23:49;;;;;;;2.17;0.43;;;15.90;71.80;;;;;;4982998;28;20081;-16
2022/11/25 07:26:20;;;;;;;0.88;0.30;;;15.90;71.50;;;;;;4984987;28;20069;-16
2022/11/25 07:28:46;;;;;;;0.57;0.38;;;15.90;71.60;;;;;;4984321;28;20099;-16
2022/11/25 07:31:20;;;;;;;1.02;0.30;;;15.90;71.50;;;;;;4982479;28;20077;-15
2022/11/25 07:33:46;;;;;;;0.28;0.28;;;15.90;71.70;;;;;;4982364;28;20101;-16
2022/11/25 07:36:12;;;;;;;0.30;0.30;;;15.90;71.90;;;;;;4979381;28;20110;-16
2022/11/25 07:38:38;;;;;;;0.60;0.50;;;15.90;71.90;;;;;;4976634;28;20046;-16
2022/11/25 07:41:08;;;;;;;0.30;0.30;;;15.90;71.80;;;;;;4986922;28;20556;-16
2022/11/25 07:43:34;;;;;;;0.68;0.50;;;15.90;71.80;;;;;;4986501;28;20121;-17
2022/11/25 07:46:23;;;;;;;0.50;0.30;;;15.90;71.50;;;;;;4981948;28;20125;-16
2022/11/25 07:48:48;;;;;;;0.52;0.40;;;16.00;71.30;;;;;;4987838;28;20046;-16
2022/11/25 07:51:20;;;;;;;0.50;0.40;;;15.90;71.50;;;;;;4989115;28;20038;-16
2022/11/25 07:53:45;;;;;;;2.17;0.60;;;15.90;71.60;;;;;;4987639;28;20070;-16
2022/11/25 07:56:12;;;;;;;1.10;0.50;;;15.90;71.50;;;;;;4988110;28;20088;-16
2022/11/25 07:58:37;;;;;;;0.93;0.47;;;15.90;71.60;;;;;;4988282;28;20100;-16
2022/11/25 08:01:03;;;;;;;0.38;0.30;;;15.90;71.60;;;;;;4989198;28;20042;-16
2022/11/25 08:03:31;;;;;;;0.38;0.28;;;15.90;71.80;;;;;;4988935;28;20468;-16
2022/11/25 08:06:06;;;;;;;0.57;0.32;;;15.90;71.70;;;;;;4988341;28;20034;-29
2022/11/25 08:08:32;;;;;;;1.08;0.50;;;15.90;71.50;;;;;;4986073;28;20053;-22
2022/11/25 08:10:58;;;;;;;0.30;0.22;;;15.90;71.50;;;;;;4985656;28;20100;-17
2022/11/25 08:13:24;;;;;;;1.05;0.50;;;15.90;71.50;;;;;;4986611;28;20046;-16
2022/11/25 08:15:49;;;;;;;1.08;0.50;;;15.90;71.30;;;;;;4988053;28;20042;-16
2022/11/25 08:18:15;;;;;;;0.43;0.40;;;15.90;72.00;;;;;;4988182;28;20146;-16
2022/11/25 08:20:41;;;;;;;0.47;0.40;;;15.80;71.40;;;;;;4987305;28;20414;-16
2022/11/25 08:23:06;;;;;;;0.20;0.20;;;15.90;72.00;;;;;;4988550;28;20070;-16
2022/11/25 08:25:32;;;;;;;0.68;0.30;;;15.90;71.20;;;;;;4987488;28;20046;-16
2022/11/25 08:27:58;;;;;;;0.50;0.40;;;15.90;71.20;;;;;;4987873;28;20050;-16
2022/11/25 08:30:24;;;;;;;1.25;0.20;;;15.90;72.00;;;;;;4988361;28;20133;-17
2022/11/25 08:32:51;;;;;;;0.50;0.30;;;15.90;71.20;;;;;;4987854;28;20122;-16
2022/11/25 08:35:17;;;;;;;0.50;0.35;;;15.80;71.20;;;;;;4987796;28;20446;-16
2022/11/25 08:37:42;;;;;;;0.70;0.30;;;15.80;71.20;;;;;;4987860;28;20027;-16
2022/11/25 08:40:09;;;;;;;0.85;0.20;;;15.90;71.20;;;;;;4987769;28;20050;-16
2022/11/25 08:42:35;;;;;;;1.70;0.40;;;15.90;71.00;;;;;;4986223;28;20050;-16
2022/11/25 08:45:01;;;;;;;1.85;0.30;;;15.80;71.20;;;;;;4986886;28;20489;-16
2022/11/25 08:47:26;;;;;;;0.20;0.20;;;15.80;71.20;;;;;;4988152;28;20503;-17
2022/11/25 08:49:52;;;;;;;0.40;0.30;;;15.80;71.10;;;;;;4987674;28;20537;-16
2022/11/25 08:52:18;;;;;;;1.75;0.50;;;15.80;71.00;;;;;;4988409;28;20041;-16
2022/11/25 08:54:44;;;;;;;0.73;0.32;;;15.80;70.70;;;;;;4987147;28;20042;-16
2022/11/25 08:57:09;;;;;;;0.30;0.28;;;15.80;70.80;;;;;;4988249;28;20092;-16
2022/11/25 08:59:35;;;;;;;0.45;0.30;;;15.80;70.70;;;;;;4986597;28;20049;-16
2022/11/25 09:02:01;;;;;;;0.88;0.50;;;15.80;70.80;;;;;;4987993;28;20538;-16
2022/11/25 09:04:26;;;;;;;0.50;0.40;;;15.90;71.30;;;;;;4988384;28;20046;-16
2022/11/25 09:06:52;;;;;;;0.60;0.40;;;15.90;70.50;;;;;;4987649;28;20602;-16
2022/11/25 09:09:17;;;;;;;0.95;0.40;;;15.90;70.50;;;;;;4987802;28;20034;-16
2022/11/25 09:11:43;;;;;;;0.38;0.28;;;15.90;70.60;;;;;;4987055;28;20043;-16
2022/11/25 09:14:08;;;;;;;0.57;0.30;;;15.90;70.20;;;;;;4988609;28;20185;-16
2022/11/25 09:16:35;;;;;;;0.73;0.60;;;15.90;70.30;;;;;;4986998;28;20524;-18
2022/11/25 09:19:00;;;;;;;0.35;0.30;;;15.90;70.30;;;;;;4986636;28;20050;-16
2022/11/25 09:21:26;;;;;;;0.30;0.30;;;15.90;70.40;;;;;;4986713;28;20037;-16
2022/11/25 09:23:52;;;;;;;0.85;0.30;;;16.00;71.20;;;;;;4982253;28;20415;-16
2022/11/25 09:26:26;;;;;;;0.47;0.30;;;15.90;70.60;;;;;;4986580;28;20034;-17
2022/11/25 09:28:51;;;;;;;0.63;0.40;;;16.00;70.60;;;;;;4986496;28;20049;-16
2022/11/25 09:31:17;;;;;;;0.93;0.40;;;16.00;70.50;;;;;;4987811;28;20046;-16
2022/11/25 09:33:43;;;;;;;1.33;0.40;;;16.00;70.50;;;;;;4987238;28;20030;-16
2022/11/25 09:36:09;;;;;;;1.40;0.32;;;16.10;70.20;;;;;;4988011;28;20069;-15
2022/11/25 09:38:35;;;;;;;0.95;0.43;;;16.20;70.20;;;;;;4982381;28;20777;-21
2022/11/25 09:47:36;;;;;;;0.70;0.60;;;16.40;69.10;;;;;;4986406;28;20069;-15
2022/11/25 09:50:07;;;;;;;0.32;0.32;;;16.30;69.30;;;;;;4966920;28;20046;-15
2022/11/25 09:53:07;;;;;;;0.35;0.35;;;16.40;69.20;;;;;;4985427;28;20041;-16
2022/11/25 09:55:38;;;;;;;1.00;0.50;;;16.40;69.30;;;;;;4986278;28;20138;-15
2022/11/25 09:58:31;;;;;;;0.63;0.40;;;16.50;69.00;;;;;;4989021;28;20050;-16
2022/11/25 10:00:57;;;;;;;0.65;0.50;;;16.50;68.90;;;;;;4989896;28;20181;-17
2022/11/25 10:03:28;;;;;;;0.63;0.35;;;16.50;69.00;;;;;;4990025;28;20057;-16
2022/11/25 10:06:03;;;;;;;1.17;0.60;;;16.50;69.00;;;;;;4989728;28;20046;-15
2022/11/25 10:08:37;;;;;;;1.70;0.70;;;16.40;69.10;;;;;;4990092;28;20054;-16
2022/11/25 10:11:21;;;;;;;0.45;0.40;;;16.40;69.00;;;;;;4986894;28;20515;-21
2022/11/25 10:13:52;;;;;;;0.50;0.40;;;16.40;69.10;;;;;;4987148;28;20121;-18
2022/11/25 10:16:35;;;;;;;0.70;0.43;;;16.50;69.00;;;;;;4989293;28;20050;-16
2022/11/25 10:19:36;;;;;;;0.50;0.30;;;16.50;69.00;;;;;;4988451;28;20052;-16
2022/11/25 10:22:24;;;;;;;0.30;0.20;;;16.40;69.00;;;;;;4972818;28;20038;-15
2022/11/25 10:24:51;;;;;;;0.30;0.30;;;16.50;68.90;;;;;;4990143;28;20518;-16
2022/11/25 10:27:48;;;;;;;0.40;0.30;;;16.50;68.90;;;;;;4988993;28;20121;-16
2022/11/25 10:30:20;;;;;;;0.75;0.40;;;16.40;69.10;;;;;;4931217;29;20597;-16
2022/11/25 10:32:59;;;;;;;0.90;0.40;;;16.50;69.00;;;;;;4929793;28;20763;-17
2022/11/25 10:35:37;;;;;;;0.60;0.30;;;16.50;69.00;;;;;;4947353;28;20051;-16
2022/11/25 10:38:05;;;;;;;0.40;0.30;;;16.60;68.80;;;;;;4930986;28;20043;-16
2022/11/25 10:40:31;;;;;;;1.02;0.50;;;16.50;68.90;;;;;;4926485;29;20078;-15
2022/11/25 10:42:57;;;;;;;1.02;0.60;;;16.60;68.80;;;;;;4945903;28;20118;-22
2022/11/25 10:45:28;;;;;;;0.30;0.20;;;16.50;68.70;;;;;;4947220;28;20035;-15
2022/11/25 10:48:33;;;;;;;0.80;0.55;;;16.50;68.90;;;;;;4929561;28;20039;-16
2022/11/25 10:51:41;;;;;;;0.52;0.40;;;16.50;68.80;;;;;;4950112;28;22626;-15
2022/11/25 10:54:18;;;;;;;0.52;0.43;;;16.60;68.80;;;;;;4933513;28;20113;-15
2022/11/25 10:56:55;;;;;;;0.20;0.20;;;16.70;68.40;;;;;;4947157;28;20137;-16
2022/11/25 10:59:28;;;;;;;0.30;0.30;;;16.60;68.40;;;;;;4947468;28;20071;-16
2022/11/25 11:02:12;;;;;;;0.47;0.30;;;16.60;68.80;;;;;;4946857;28;20045;-16
2022/11/25 11:05:06;;;;;;;0.63;0.40;;;16.50;68.80;;;;;;4930063;29;20051;-16
2022/11/25 11:07:33;;;;;;;0.50;0.30;;;16.60;68.70;;;;;;4978527;28;20030;-15
2022/11/25 11:10:17;;;;;;;0.43;0.30;;;16.60;68.40;;;;;;4989260;28;20041;-16
2022/11/25 11:13:02;;;;;;;0.47;0.43;;;16.60;68.50;;;;;;4986474;28;20034;-16
2022/11/25 11:15:30;;;;;;;0.30;0.28;;;16.60;68.50;;;;;;4989677;28;20046;-16
2022/11/25 11:17:57;;;;;;;0.80;0.70;;;16.60;68.70;;;;;;4986676;28;20042;-16
2022/11/25 11:20:29;;;;;;;0.85;0.40;;;16.60;68.70;;;;;;4988611;28;21502;-16
2022/11/25 11:23:07;;;;;;;2.03;0.50;;;16.60;68.90;;;;;;4986717;28;20046;-19
2022/11/25 11:25:35;;;;;;;0.57;0.38;;;16.60;68.80;;;;;;4987159;28;20413;-16
2022/11/25 11:28:01;;;;;;;0.55;0.40;;;16.60;68.70;;;;;;4988134;28;20570;-17
2022/11/25 11:30:28;;;;;;;0.47;0.25;;;16.70;68.80;;;;;;4987917;28;20030;-16
2022/11/25 11:33:00;;;;;;;1.58;0.30;;;16.60;68.80;;;;;;4987463;28;20684;-16
2022/11/25 11:35:34;;;;;;;0.47;0.30;;;16.60;68.80;;;;;;4989020;28;20048;-15
2022/11/25 11:38:04;;;;;;;0.45;0.30;;;16.60;68.70;;;;;;4988644;28;20070;-15
2022/11/25 11:40:42;;;;;;;0.60;0.32;;;16.60;68.70;;;;;;4986721;28;20046;-15
2022/11/25 11:43:25;;;;;;;0.30;0.30;;;16.60;68.70;;;;;;4986852;28;20137;-16
2022/11/25 11:46:23;;;;;;;0.32;0.30;;;16.70;68.80;;;;;;4987382;28;20053;-16
2022/11/25 11:49:03;;;;;;;0.40;0.28;;;16.60;68.70;;;;;;4962181;28;20043;-20
2022/11/25 11:51:36;;;;;;;0.88;0.50;;;16.60;68.70;;;;;;4965480;28;20050;-16
2022/11/25 11:54:09;;;;;;;0.65;0.30;;;16.70;68.60;;;;;;4977450;28;20051;-15
2022/11/25 11:56:42;;;;;;;1.50;0.40;;;16.70;68.60;;;;;;4965777;28;20039;-16
2022/11/25 11:59:26;;;;;;;0.30;0.30;;;16.70;68.50;;;;;;5015351;28;20049;-15
2022/11/25 12:02:13;;;;;;;1.08;0.45;;;16.70;69.00;;;;;;4985832;28;20045;-19
2022/11/25 12:04:44;;;;;;;0.85;0.40;;;16.80;68.40;;;;;;4987563;28;20460;-18
2022/11/25 12:07:20;;;;;;;0.77;0.43;;;16.80;68.50;;;;;;4986943;28;20046;-21
2022/11/25 12:09:56;;;;;;;0.93;0.52;;;16.70;68.40;;;;;;4986586;28;20097;-17
2022/11/25 12:12:23;;;;;;;0.38;0.30;;;16.80;68.40;;;;;;4987373;28;20590;-15
2022/11/25 12:14:50;;;;;;;0.65;0.25;;;16.80;68.20;;;;;;4986930;28;20050;-15
2022/11/25 12:17:38;;;;;;;0.43;0.30;;;16.80;68.20;;;;;;4986591;28;20042;-16
2022/11/25 12:20:24;;;;;;;0.50;0.30;;;16.80;68.20;;;;;;4969036;28;20049;-16
2022/11/25 12:22:54;;;;;;;0.70;0.32;;;16.80;68.20;;;;;;4985168;28;20089;-15
2022/11/25 12:25:24;;;;;;;0.20;0.20;;;16.90;68.20;;;;;;4986172;28;20038;-16
2022/11/25 12:27:56;;;;;;;0.52;0.40;;;16.80;68.20;;;;;;4984420;28;20081;-16
2022/11/25 12:30:22;;;;;;;0.47;0.30;;;16.80;68.20;;;;;;4986585;28;20121;-15
2022/11/25 12:33:13;;;;;;;0.60;0.43;;;16.80;68.20;;;;;;4986591;28;20117;-16
2022/11/25 12:36:02;;;;;;;0.50;0.50;;;16.80;68.30;;;;;;4983981;28;20042;-16
2022/11/25 12:38:38;;;;;;;0.50;0.40;;;16.80;68.30;;;;;;4985907;28;20045;-16
2022/11/25 12:41:18;;;;;;;0.40;0.30;;;16.80;68.30;;;;;;4983570;28;20079;-16
2022/11/25 12:44:02;;;;;;;0.40;0.30;;;16.90;68.30;;;;;;4984453;28;20050;-16
2022/11/25 12:46:30;;;;;;;0.40;0.30;;;16.80;68.20;;;;;;4982473;28;20539;-15
2022/11/25 12:48:56;;;;;;;0.40;0.40;;;16.80;68.40;;;;;;4983954;28;20496;-16
2022/11/25 12:51:22;;;;;;;0.30;0.30;;;16.80;68.40;;;;;;4984222;28;20060;-16
2022/11/25 12:54:10;;;;;;;0.47;0.40;;;16.90;68.40;;;;;;4985179;28;20054;-16
2022/11/25 12:57:14;;;;;;;0.73;0.50;;;16.90;68.40;;;;;;4983242;28;20050;-16
2022/11/25 13:00:11;;;;;;;0.30;0.30;;;16.90;68.40;;;;;;4982193;28;20166;-17
2022/11/25 13:03:10;;;;;;;1.85;0.40;;;16.90;68.40;;;;;;4984923;28;20447;-16
2022/11/25 13:05:54;;;;;;;0.60;0.30;;;16.90;68.50;;;;;;4984272;28;20148;-16
2022/11/25 13:08:56;;;;;;;0.50;0.32;;;16.90;68.50;;;;;;4985849;28;20034;-16